Time;durP1;ratioP1;P1;durP2;ratioP2;P2;SDS_P1;SDS_P2;PMS_P1;PMS_P2;Temp;Humidity;BMP_temperature;BMP_pressure;BME280_temperature;BME280_humidity;BME280_pressure;Samples;Min_cycle;Max_cycle;Signal;HPM_P1;HPM_P2
2022/05/30 00:02:20;;;;;;;15.70;10.10;;;;;;;;;;5073064;28;20090;-78
2022/05/30 00:04:48;;;;;;;16.55;10.98;;;;;;;;;;5072738;28;20583;-77
2022/05/30 00:07:15;;;;;;;16.42;11.93;;;;;;;;;;5072802;28;20076;-77
2022/05/30 00:09:43;;;;;;;17.23;10.80;;;;;;;;;;5072585;28;20063;-78
2022/05/30 00:12:12;;;;;;;17.13;10.95;;;;;;;;;;5072801;28;20124;-78
2022/05/30 00:14:39;;;;;;;15.00;10.90;;;;;;;;;;5072726;28;20521;-78
2022/05/30 00:17:07;;;;;;;15.35;10.90;;;;;;;;;;5072755;28;20556;-77
2022/05/30 00:19:39;;;;;;;15.20;12.57;;;;;;;;;;5055036;28;20045;-77
2022/05/30 00:22:11;;;;;;;17.13;12.05;;;;;;;;;;5072653;28;20064;-78
2022/05/30 00:24:38;;;;;;;16.33;12.55;;;;;;;;;;5072685;28;20039;-77
2022/05/30 00:27:06;;;;;;;16.58;13.52;;;;;;;;;;5072696;28;20041;-77
2022/05/30 00:29:33;;;;;;;17.25;12.13;;;;;;;;;;5072711;28;20044;-78
2022/05/30 00:32:01;;;;;;;17.70;12.70;;;;;;;;;;5072715;28;20106;-77
2022/05/30 00:34:29;;;;;;;24.98;11.95;;;;;;;;;;5054569;28;20440;-78
2022/05/30 00:36:56;;;;;;;18.73;12.98;;;;;;;;;;5054695;28;20040;-77
2022/05/30 00:39:24;;;;;;;16.58;12.48;;;;;;;;;;5072547;28;20119;-78
2022/05/30 00:41:52;;;;;;;17.52;12.32;;;;;;;;;;5072620;28;20045;-78
2022/05/30 00:44:19;;;;;;;16.63;12.35;;;;;;;;;;5050887;28;20045;-77
2022/05/30 00:46:47;;;;;;;13.65;12.05;;;;;;;;;;5051203;28;20123;-78
2022/05/30 00:49:14;;;;;;;17.80;12.52;;;;;;;;;;5052454;28;20041;-77
2022/05/30 00:51:43;;;;;;;20.80;13.23;;;;;;;;;;5052456;28;20119;-77
2022/05/30 00:54:12;;;;;;;19.95;13.43;;;;;;;;;;5051119;28;20240;-78
2022/05/30 00:56:43;;;;;;;17.13;14.05;;;;;;;;;;5052339;28;20045;-78
2022/05/30 00:59:11;;;;;;;21.35;13.98;;;;;;;;;;5052378;28;20056;-78
2022/05/30 01:01:38;;;;;;;18.02;14.20;;;;;;;;;;5050998;28;20132;-77
2022/05/30 01:06:58;;;;;;;17.15;13.40;;;;;;;;;;5052280;28;20041;-78
2022/05/30 01:09:31;;;;;;;20.75;15.90;;;;;;;;;;5052312;28;20037;-77
2022/05/30 01:11:58;;;;;;;19.60;14.65;;;;;;;;;;5050975;28;20073;-77
2022/05/30 01:14:30;;;;;;;21.45;14.52;;;;;;;;;;5050955;28;20068;-77
2022/05/30 01:16:59;;;;;;;16.40;12.77;;;;;;;;;;5034590;28;20072;-77
2022/05/30 01:19:36;;;;;;;19.20;13.73;;;;;;;;;;5050978;28;20037;-78
2022/05/30 01:22:23;;;;;;;19.55;14.32;;;;;;;;;;5054524;28;20047;-77
2022/05/30 01:24:53;;;;;;;15.85;13.90;;;;;;;;;;5054503;28;20434;-78
2022/05/30 01:27:47;;;;;;;22.98;14.32;;;;;;;;;;5032158;28;20064;-77
2022/05/30 01:30:15;;;;;;;18.67;14.07;;;;;;;;;;5059506;28;20076;-77
2022/05/30 01:32:44;;;;;;;19.88;14.95;;;;;;;;;;5065350;28;20071;-77
2022/05/30 01:35:11;;;;;;;23.75;15.65;;;;;;;;;;5055180;28;20057;-77
2022/05/30 01:37:42;;;;;;;21.02;15.68;;;;;;;;;;5054165;28;20442;-76
2022/05/30 01:40:11;;;;;;;20.90;14.85;;;;;;;;;;5058125;28;20091;-77
2022/05/30 01:42:39;;;;;;;19.52;15.13;;;;;;;;;;5065617;28;20478;-77
2022/05/30 01:45:07;;;;;;;20.80;15.20;;;;;;;;;;5060471;28;20091;-77
2022/05/30 01:47:35;;;;;;;23.70;16.85;;;;;;;;;;5054505;28;20040;-77
2022/05/30 01:50:04;;;;;;;20.77;15.98;;;;;;;;;;5054588;28;20099;-77
2022/05/30 01:52:35;;;;;;;19.92;15.80;;;;;;;;;;5054024;28;20041;-77
2022/05/30 01:55:04;;;;;;;21.48;16.17;;;;;;;;;;5054068;28;20083;-77
2022/05/30 01:57:54;;;;;;;22.05;16.80;;;;;;;;;;5055016;28;20106;-77
2022/05/30 02:00:34;;;;;;;23.80;17.17;;;;;;;;;;5055649;28;20102;-77
2022/05/30 02:03:03;;;;;;;26.20;17.55;;;;;;;;;;5053985;28;20037;-77
2022/05/30 02:05:33;;;;;;;21.55;17.20;;;;;;;;;;5053680;28;20095;-77
2022/05/30 02:08:01;;;;;;;25.63;17.45;;;;;;;;;;5053755;28;20048;-77
2022/05/30 02:10:31;;;;;;;23.38;16.88;;;;;;;;;;5053678;28;20057;-76
2022/05/30 02:13:02;;;;;;;24.27;17.60;;;;;;;;;;5053206;28;20061;-77
2022/05/30 02:18:35;;;;;;;22.85;19.15;;;;;;;;;;5054715;28;20056;-76
2022/05/30 02:21:03;;;;;;;26.88;18.33;;;;;;;;;;5053584;28;20139;-76
2022/05/30 02:23:32;;;;;;;25.98;18.92;;;;;;;;;;5053356;28;20065;-77
2022/05/30 02:25:59;;;;;;;25.95;19.65;;;;;;;;;;5053383;28;20143;-76
2022/05/30 02:28:28;;;;;;;27.83;20.73;;;;;;;;;;5052558;28;20103;-77
2022/05/30 02:30:57;;;;;;;25.58;20.30;;;;;;;;;;5036981;28;20064;-77
2022/05/30 02:38:58;;;;;;;31.50;22.92;;;;;;;;;;5053001;28;20132;-76
2022/05/30 02:41:31;;;;;;;33.50;21.73;;;;;;;;;;5054835;28;20482;-76
2022/05/30 02:44:08;;;;;;;34.35;22.70;;;;;;;;;;5053079;28;20131;-76
2022/05/30 02:46:39;;;;;;;30.27;22.10;;;;;;;;;;5053073;28;20102;-76
2022/05/30 02:49:08;;;;;;;31.17;23.17;;;;;;;;;;5053165;28;20489;-76
2022/05/30 02:51:36;;;;;;;30.73;22.05;;;;;;;;;;5053095;28;20045;-76
2022/05/30 02:54:07;;;;;;;37.13;23.30;;;;;;;;;;5052963;28;20044;-76
2022/05/30 02:56:54;;;;;;;30.52;23.73;;;;;;;;;;5054247;28;20142;-76
2022/05/30 02:59:23;;;;;;;31.60;23.63;;;;;;;;;;5052825;28;20041;-76
2022/05/30 03:01:59;;;;;;;31.73;23.95;;;;;;;;;;5052899;28;20048;-76
2022/05/30 03:04:27;;;;;;;33.70;23.92;;;;;;;;;;5052679;28;20453;-76
2022/05/30 03:06:54;;;;;;;32.67;23.80;;;;;;;;;;5052329;28;20072;-76
2022/05/30 03:09:22;;;;;;;35.83;23.80;;;;;;;;;;5051874;28;20047;-75
2022/05/30 03:12:28;;;;;;;34.97;25.27;;;;;;;;;;5010169;28;20100;-76
2022/05/30 03:14:56;;;;;;;30.25;23.40;;;;;;;;;;4995258;28;20046;-76
2022/05/30 03:17:24;;;;;;;39.38;25.42;;;;;;;;;;5031077;28;20402;-76
2022/05/30 03:19:53;;;;;;;30.08;22.08;;;;;;;;;;5052291;28;20087;-76
2022/05/30 03:22:21;;;;;;;37.22;23.60;;;;;;;;;;5052440;28;20077;-76
2022/05/30 03:25:12;;;;;;;36.50;24.83;;;;;;;;;;5053057;28;20125;-76
2022/05/30 03:27:39;;;;;;;35.75;25.92;;;;;;;;;;5052079;28;20070;-76
2022/05/30 03:30:08;;;;;;;34.28;25.77;;;;;;;;;;5053113;28;20094;-76
2022/05/30 03:32:35;;;;;;;35.75;28.05;;;;;;;;;;5051436;28;20517;-76
2022/05/30 03:35:04;;;;;;;35.05;26.67;;;;;;;;;;5051673;28;20055;-75
2022/05/30 03:37:36;;;;;;;31.05;25.15;;;;;;;;;;5051892;28;20095;-76
2022/05/30 03:40:33;;;;;;;34.40;24.98;;;;;;;;;;4999013;28;20140;-76
2022/05/30 03:43:17;;;;;;;34.03;24.25;;;;;;;;;;5051303;28;20453;-73
2022/05/30 03:45:45;;;;;;;32.15;24.38;;;;;;;;;;5054649;28;20135;-73
2022/05/30 03:48:20;;;;;;;30.77;24.13;;;;;;;;;;5055125;28;20490;-73
2022/05/30 03:50:49;;;;;;;34.22;23.85;;;;;;;;;;5071899;28;20094;-73
2022/05/30 03:53:17;;;;;;;29.95;24.05;;;;;;;;;;5053924;28;20049;-73
2022/05/30 03:55:45;;;;;;;31.75;24.25;;;;;;;;;;5053905;28;20136;-75
2022/05/30 03:58:16;;;;;;;30.48;23.17;;;;;;;;;;5038030;28;20067;-74
2022/05/30 04:00:45;;;;;;;31.42;23.00;;;;;;;;;;5054492;28;20502;-74
2022/05/30 04:03:15;;;;;;;34.25;23.45;;;;;;;;;;5054845;28;20076;-75
2022/05/30 04:05:44;;;;;;;30.05;21.77;;;;;;;;;;5054747;28;20059;-74
2022/05/30 04:08:13;;;;;;;29.63;22.58;;;;;;;;;;5054807;28;20068;-74
2022/05/30 04:10:59;;;;;;;27.40;21.70;;;;;;;;;;5072752;28;20178;-75
2022/05/30 04:13:52;;;;;;;28.73;21.65;;;;;;;;;;5072610;28;20087;-73
2022/05/30 04:16:40;;;;;;;28.40;21.58;;;;;;;;;;5054710;28;20566;-74
2022/05/30 04:19:11;;;;;;;31.20;22.48;;;;;;;;;;5054733;28;20087;-74
2022/05/30 04:21:39;;;;;;;30.02;21.08;;;;;;;;;;5054691;28;20553;-75
2022/05/30 04:24:07;;;;;;;29.88;21.40;;;;;;;;;;5054591;28;20388;-74
2022/05/30 04:26:52;;;;;;;25.58;20.05;;;;;;;;;;5054305;28;20048;-74
2022/05/30 04:29:21;;;;;;;28.17;19.95;;;;;;;;;;5054297;28;20044;-74
2022/05/30 04:31:48;;;;;;;24.67;19.98;;;;;;;;;;5054441;28;20076;-74
2022/05/30 04:34:16;;;;;;;26.17;19.88;;;;;;;;;;5052707;28;20398;-76
2022/05/30 04:36:44;;;;;;;27.17;20.55;;;;;;;;;;5054284;28;20443;-75
2022/05/30 04:39:11;;;;;;;25.60;19.73;;;;;;;;;;5054310;28;20437;-76
2022/05/30 04:41:59;;;;;;;24.23;19.35;;;;;;;;;;5011617;28;20090;-75
2022/05/30 04:44:45;;;;;;;22.98;18.73;;;;;;;;;;5070891;28;20047;-75
2022/05/30 04:47:35;;;;;;;26.17;19.48;;;;;;;;;;5053631;28;20131;-75
2022/05/30 04:50:07;;;;;;;24.10;19.77;;;;;;;;;;5054033;28;20151;-76
2022/05/30 04:52:37;;;;;;;29.27;19.65;;;;;;;;;;5054424;28;20474;-76
2022/05/30 04:55:24;;;;;;;29.17;19.88;;;;;;;;;;5072672;28;20053;-77
2022/05/30 04:57:56;;;;;;;27.58;20.23;;;;;;;;;;5057708;28;20493;-76
2022/05/30 05:00:49;;;;;;;32.08;20.17;;;;;;;;;;5069931;28;20063;-76
2022/05/30 05:03:24;;;;;;;24.13;18.77;;;;;;;;;;5057880;28;20684;-75
2022/05/30 05:05:59;;;;;;;22.67;18.77;;;;;;;;;;5057948;28;20095;-74
2022/05/30 05:08:37;;;;;;;23.65;19.67;;;;;;;;;;5057762;28;20059;-65
2022/05/30 05:11:25;;;;;;;24.20;18.90;;;;;;;;;;5075505;28;20508;-72
2022/05/30 05:14:11;;;;;;;23.42;17.75;;;;;;;;;;5076173;28;20055;-71
2022/05/30 05:17:06;;;;;;;68.07;52.58;;;;;;;;;;5029775;28;20055;-74
2022/05/30 05:19:35;;;;;;;42.63;33.58;;;;;;;;;;5057402;28;20432;-71
2022/05/30 05:22:02;;;;;;;31.15;25.17;;;;;;;;;;5056799;28;20058;-72
2022/05/30 05:24:30;;;;;;;23.33;19.08;;;;;;;;;;5055829;28;20094;-72
2022/05/30 05:27:15;;;;;;;22.10;18.50;;;;;;;;;;5074923;28;20106;-71
2022/05/30 05:29:43;;;;;;;27.27;17.30;;;;;;;;;;5057393;28;20045;-71
2022/05/30 05:32:11;;;;;;;23.83;17.90;;;;;;;;;;5057685;28;20041;-71
2022/05/30 05:34:39;;;;;;;23.08;17.83;;;;;;;;;;5057794;28;20041;-72
2022/05/30 05:37:07;;;;;;;24.67;17.15;;;;;;;;;;5057713;28;20044;-71
2022/05/30 05:39:43;;;;;;;22.48;17.55;;;;;;;;;;5057595;28;20506;-72
2022/05/30 05:42:13;;;;;;;21.20;16.45;;;;;;;;;;5057631;28;20094;-72
2022/05/30 05:44:41;;;;;;;19.67;16.33;;;;;;;;;;5057509;28;20101;-72
2022/05/30 05:47:09;;;;;;;22.55;17.25;;;;;;;;;;5057406;28;20098;-72
2022/05/30 05:49:39;;;;;;;23.70;16.55;;;;;;;;;;5075445;28;20494;-72
2022/05/30 05:52:07;;;;;;;18.50;16.08;;;;;;;;;;5057511;28;20049;-72
2022/05/30 05:54:35;;;;;;;18.42;15.05;;;;;;;;;;5057379;28;20047;-72
2022/05/30 05:57:05;;;;;;;20.20;14.30;;;;;;;;;;5057220;28;20098;-72
2022/05/30 05:59:38;;;;;;;20.48;16.48;;;;;;;;;;5057367;28;20051;-71
2022/05/30 06:02:06;;;;;;;17.88;15.18;;;;;;;;;;5057195;28;20040;-71
2022/05/30 06:04:37;;;;;;;19.27;15.95;;;;;;;;;;5057240;28;20040;-72
2022/05/30 06:07:07;;;;;;;19.58;15.50;;;;;;;;;;5074724;28;20040;-71
2022/05/30 06:09:51;;;;;;;24.52;21.15;;;;;;;;;;5057172;28;20506;-72
2022/05/30 06:12:36;;;;;;;21.65;19.27;;;;;;;;;;5057041;28;20041;-72
2022/05/30 06:15:05;;;;;;;17.85;15.10;;;;;;;;;;5057025;28;20060;-72
2022/05/30 06:17:44;;;;;;;18.02;14.40;;;;;;;;;;5056906;28;20044;-72
2022/05/30 06:20:14;;;;;;;19.02;13.60;;;;;;;;;;5056914;28;20033;-72
2022/05/30 06:22:42;;;;;;;15.63;13.35;;;;;;;;;;5056845;28;20130;-72
2022/05/30 06:25:30;;;;;;;16.85;14.02;;;;;;;;;;5074484;28;20052;-72
2022/05/30 06:28:16;;;;;;;21.60;14.95;;;;;;;;;;5075017;28;20520;-72
2022/05/30 06:31:08;;;;;;;18.02;14.63;;;;;;;;;;5060537;28;20052;-71
2022/05/30 06:33:36;;;;;;;20.13;15.32;;;;;;;;;;5074686;28;20097;-71
2022/05/30 06:36:08;;;;;;;16.60;13.82;;;;;;;;;;5056709;28;20037;-72
2022/05/30 06:38:36;;;;;;;19.67;13.52;;;;;;;;;;5056586;28;20045;-72
2022/05/30 06:41:10;;;;;;;;;;;;;;;;;;5056906;28;20440;-72
2022/05/30 06:43:39;;;;;;;13.35;11.48;;;;;;;;;;5056306;28;19927;-72
2022/05/30 06:46:25;;;;;;;14.48;12.43;;;;;;;;;;5074469;28;20122;-72
2022/05/30 06:49:12;;;;;;;15.38;11.35;;;;;;;;;;5074279;28;20050;-72
2022/05/30 06:51:48;;;;;;;12.90;11.02;;;;;;;;;;5056266;28;20048;-72
2022/05/30 06:54:16;;;;;;;16.52;12.48;;;;;;;;;;5056071;28;20045;-71
2022/05/30 06:58:12;;;;;;;15.98;11.50;;;;;;;;;;5056239;28;20127;-72
2022/05/30 06:59:34;;;;;;;16.80;11.95;;;;;;;;;;5056002;28;20045;-72
2022/05/30 07:02:05;;;;;;;11.77;10.00;;;;;;;;;;5056035;28;20052;-71
2022/05/30 07:04:52;;;;;;;13.65;10.90;;;;;;;;;;5073995;28;20071;-72
2022/05/30 07:07:41;;;;;;;21.50;10.55;;;;;;;;;;5073870;28;20044;-72
2022/05/30 07:10:41;;;;;;;13.23;10.00;;;;;;;;;;5029064;28;20513;-71
2022/05/30 07:13:13;;;;;;;16.83;10.77;;;;;;;;;;5039975;28;20139;-71
2022/05/30 07:15:42;;;;;;;15.02;10.45;;;;;;;;;;5055925;28;20044;-72
2022/05/30 07:18:16;;;;;;;13.73;11.43;;;;;;;;;;5054974;28;20036;-71
2022/05/30 07:20:44;;;;;;;15.60;11.68;;;;;;;;;;5055808;28;20127;-71
2022/05/30 07:23:31;;;;;;;12.95;11.57;;;;;;;;;;5073909;28;20037;-72
2022/05/30 07:26:25;;;;;;;15.43;12.30;;;;;;;;;;5042310;28;20147;-72
2022/05/30 07:29:11;;;;;;;72.20;39.95;;;;;;;;;;5073698;28;20055;-71
2022/05/30 07:32:00;;;;;;;16.67;12.02;;;;;;;;;;5073545;28;20047;-72
2022/05/30 07:34:46;;;;;;;13.43;11.48;;;;;;;;;;5073584;28;20115;-71
2022/05/30 07:37:33;;;;;;;15.98;12.15;;;;;;;;;;5073377;28;20141;-71
2022/05/30 07:40:23;;;;;;;15.23;10.65;;;;;;;;;;5062356;28;20078;-71
2022/05/30 07:43:03;;;;;;;14.30;11.00;;;;;;;;;;5040319;28;20135;-71
2022/05/30 07:46:02;;;;;;;14.30;10.50;;;;;;;;;;5054998;28;20076;-71
2022/05/30 07:48:48;;;;;;;13.80;10.90;;;;;;;;;;5054937;28;20135;-72
2022/05/30 07:51:31;;;;;;;12.05;9.45;;;;;;;;;;5073188;28;20131;-71
2022/05/30 07:54:18;;;;;;;46.22;37.25;;;;;;;;;;5072194;28;20087;-71
2022/05/30 07:56:57;;;;;;;17.55;13.20;;;;;;;;;;5055245;28;20051;-71
2022/05/30 07:59:25;;;;;;;12.77;9.10;;;;;;;;;;5054880;28;20097;-71
2022/05/30 08:01:53;;;;;;;11.77;10.10;;;;;;;;;;5054824;28;20059;-71
2022/05/30 08:04:20;;;;;;;13.10;10.30;;;;;;;;;;5054917;28;20612;-71
2022/05/30 08:06:48;;;;;;;10.35;9.35;;;;;;;;;;5073375;28;20499;-71
2022/05/30 08:09:34;;;;;;;13.30;10.57;;;;;;;;;;5072812;28;20524;-71
2022/05/30 08:12:12;;;;;;;12.82;10.00;;;;;;;;;;5054879;28;20498;-71
2022/05/30 08:14:55;;;;;;;11.57;9.82;;;;;;;;;;5073032;28;20056;-71
2022/05/30 08:17:28;;;;;;;13.20;9.32;;;;;;;;;;5054977;28;20135;-72
2022/05/30 08:19:59;;;;;;;10.93;8.40;;;;;;;;;;5054634;28;20515;-72
2022/05/30 08:22:33;;;;;;;13.80;10.38;;;;;;;;;;5054929;28;20414;-71
2022/05/30 08:25:03;;;;;;;12.48;9.65;;;;;;;;;;5054780;28;20086;-71
2022/05/30 08:27:31;;;;;;;12.20;8.77;;;;;;;;;;5054638;28;20047;-71
2022/05/30 08:30:01;;;;;;;12.45;9.30;;;;;;;;;;5054437;28;20094;-71
2022/05/30 08:32:35;;;;;;;14.43;10.05;;;;;;;;;;5054690;28;20136;-71
2022/05/30 08:35:06;;;;;;;11.05;9.75;;;;;;;;;;5072763;28;20449;-71
2022/05/30 08:37:34;;;;;;;11.80;9.50;;;;;;;;;;5054732;28;20048;-71
2022/05/30 08:42:51;;;;;;;12.13;9.68;;;;;;;;;;5054566;28;20045;-71
2022/05/30 08:45:48;;;;;;;12.82;9.98;;;;;;;;;;5059658;28;20055;-71
2022/05/30 08:48:22;;;;;;;11.82;9.40;;;;;;;;;;5072646;28;20436;-71
2022/05/30 08:51:06;;;;;;;11.40;9.30;;;;;;;;;;5054475;28;20131;-71
2022/05/30 08:53:57;;;;;;;12.32;8.80;;;;;;;;;;5054315;28;20101;-71
2022/05/30 08:56:35;;;;;;;11.27;7.78;;;;;;;;;;5054302;28;20059;-71
2022/05/30 08:59:12;;;;;;;10.43;8.05;;;;;;;;;;5072613;28;20058;-71
2022/05/30 09:01:43;;;;;;;11.18;8.43;;;;;;;;;;5054281;28;20091;-71
2022/05/30 09:04:34;;;;;;;10.63;8.48;;;;;;;;;;5071739;28;20067;-71
2022/05/30 09:07:04;;;;;;;11.07;8.57;;;;;;;;;;5054339;28;20402;-70
2022/05/30 09:09:50;;;;;;;13.13;8.20;;;;;;;;;;5054059;28;20040;-71
2022/05/30 09:12:30;;;;;;;10.98;7.97;;;;;;;;;;5054336;28;20052;-70
2022/05/30 09:15:48;;;;;;;9.27;8.20;;;;;;;;;;5072208;28;20394;-71
2022/05/30 09:18:21;;;;;;;10.60;8.55;;;;;;;;;;5028815;28;20060;-71
2022/05/30 09:20:49;;;;;;;10.18;8.15;;;;;;;;;;5054225;28;20040;-70
2022/05/30 09:23:21;;;;;;;10.18;9.13;;;;;;;;;;5054244;28;20076;-70
2022/05/30 09:26:03;;;;;;;8.70;7.60;;;;;;;;;;5054141;28;20494;-70
2022/05/30 09:29:09;;;;;;;8.50;7.10;;;;;;;;;;5057463;28;20056;-71
2022/05/30 09:32:12;;;;;;;;;;;;;;;;;;5010633;28;20048;-70
2022/05/30 09:35:17;;;;;;;11.50;9.05;;;;;;;;;;5067788;28;19927;-71
2022/05/30 09:38:06;;;;;;;11.85;8.35;;;;;;;;;;5072256;28;20509;-70
2022/05/30 09:40:55;;;;;;;9.50;7.68;;;;;;;;;;5054267;28;20102;-70
2022/05/30 09:43:51;;;;;;;11.93;8.55;;;;;;;;;;5057401;28;20458;-70
2022/05/30 09:46:22;;;;;;;12.57;7.95;;;;;;;;;;5057527;28;20518;-70
2022/05/30 09:49:10;;;;;;;11.02;7.80;;;;;;;;;;5075451;28;20044;-70
2022/05/30 09:51:38;;;;;;;9.55;7.78;;;;;;;;;;5057450;28;20090;-70
2022/05/30 09:54:11;;;;;;;8.85;7.40;;;;;;;;;;5057805;28;20047;-70
2022/05/30 09:56:44;;;;;;;10.27;7.60;;;;;;;;;;5057415;28;20044;-70
2022/05/30 09:59:35;;;;;;;10.18;7.85;;;;;;;;;;5057377;28;20296;-71
2022/05/30 10:02:22;;;;;;;6.47;5.35;;;;;;;;;;5057246;28;20094;-70
2022/05/30 10:04:56;;;;;;;7.97;5.93;;;;;;;;;;5057240;28;20098;-71
2022/05/30 10:07:25;;;;;;;7.57;6.47;;;;;;;;;;5057116;28;20517;-71
2022/05/30 10:10:01;;;;;;;8.55;6.90;;;;;;;;;;5057123;28;20064;-71
2022/05/30 10:12:44;;;;;;;7.53;6.60;;;;;;;;;;5057086;28;20128;-70
2022/05/30 10:15:28;;;;;;;7.47;6.20;;;;;;;;;;5057052;28;20127;-70
2022/05/30 10:18:13;;;;;;;8.35;7.35;;;;;;;;;;5057231;28;20037;-70
2022/05/30 10:20:55;;;;;;;9.30;6.20;;;;;;;;;;5056970;28;20048;-70
2022/05/30 10:30:26;;;;;;;10.93;7.32;;;;;;;;;;5056905;28;20059;-70
2022/05/30 10:33:22;;;;;;;6.38;5.47;;;;;;;;;;5075058;28;20048;-70
2022/05/30 10:36:03;;;;;;;10.05;7.28;;;;;;;;;;5056633;28;20135;-70
2022/05/30 10:38:30;;;;;;;10.77;6.57;;;;;;;;;;5040241;28;20102;-70
2022/05/30 10:41:09;;;;;;;8.80;5.97;;;;;;;;;;5056609;28;20288;-70
2022/05/30 10:43:42;;;;;;;8.63;6.25;;;;;;;;;;5056365;28;20044;-70
2022/05/30 10:46:22;;;;;;;14.18;7.95;;;;;;;;;;5056463;28;20049;-70
2022/05/30 10:49:04;;;;;;;7.05;5.63;;;;;;;;;;5056330;28;20166;-70
2022/05/30 10:51:36;;;;;;;8.82;6.22;;;;;;;;;;5040100;28;20050;-70
2022/05/30 10:54:09;;;;;;;13.00;7.88;;;;;;;;;;5056256;28;20083;-70
2022/05/30 10:56:51;;;;;;;11.60;7.85;;;;;;;;;;5056307;28;20537;-70
2022/05/30 10:59:22;;;;;;;8.25;6.82;;;;;;;;;;5056073;28;20044;-70
2022/05/30 11:01:55;;;;;;;8.43;6.45;;;;;;;;;;5056096;28;20127;-70
2022/05/30 11:04:30;;;;;;;11.45;8.63;;;;;;;;;;5056023;28;20075;-70
2022/05/30 11:07:01;;;;;;;9.70;7.45;;;;;;;;;;5056041;28;20040;-70
2022/05/30 11:09:34;;;;;;;9.65;7.05;;;;;;;;;;5055972;28;20047;-70
2022/05/30 11:12:16;;;;;;;10.52;6.63;;;;;;;;;;5055970;28;20393;-70
2022/05/30 11:14:46;;;;;;;8.48;6.38;;;;;;;;;;5073822;28;20048;-71
2022/05/30 11:17:46;;;;;;;8.60;6.38;;;;;;;;;;5073836;28;20044;-70
2022/05/30 11:20:36;;;;;;;7.75;5.90;;;;;;;;;;5062871;28;20052;-71
2022/05/30 11:23:06;;;;;;;7.60;6.20;;;;;;;;;;5055790;28;20375;-71
2022/05/30 11:25:49;;;;;;;7.32;5.25;;;;;;;;;;5073482;28;20383;-70
2022/05/30 11:28:22;;;;;;;6.57;5.80;;;;;;;;;;5073407;28;20459;-71
2022/05/30 11:30:56;;;;;;;6.82;5.60;;;;;;;;;;5073431;28;20044;-71
2022/05/30 11:33:33;;;;;;;6.93;5.60;;;;;;;;;;5073440;28;20575;-71
2022/05/30 11:36:19;;;;;;;10.32;6.20;;;;;;;;;;5073656;28;20039;-71
2022/05/30 11:39:02;;;;;;;7.10;6.40;;;;;;;;;;5073591;28;20041;-72
2022/05/30 11:41:44;;;;;;;6.28;5.45;;;;;;;;;;5055645;28;20044;-72
2022/05/30 11:44:21;;;;;;;11.60;6.93;;;;;;;;;;5073130;28;20057;-71
2022/05/30 11:46:58;;;;;;;8.60;5.70;;;;;;;;;;5073086;28;20520;-71
2022/05/30 11:49:58;;;;;;;6.47;5.43;;;;;;;;;;5073265;28;20075;-71
2022/05/30 11:52:35;;;;;;;6.47;4.75;;;;;;;;;;5029580;28;20049;-71
2022/05/30 11:55:20;;;;;;;5.28;4.72;;;;;;;;;;5055760;28;20075;-71
2022/05/30 11:57:47;;;;;;;6.20;5.15;;;;;;;;;;5073232;28;20075;-71
2022/05/30 12:00:33;;;;;;;6.13;4.60;;;;;;;;;;5073066;28;20043;-71
2022/05/30 12:03:22;;;;;;;7.47;5.07;;;;;;;;;;5072866;28;20063;-71
2022/05/30 12:06:02;;;;;;;6.88;5.05;;;;;;;;;;5054552;28;20557;-71
2022/05/30 12:08:30;;;;;;;7.25;4.70;;;;;;;;;;5072636;28;20053;-71
2022/05/30 12:10:57;;;;;;;8.20;6.07;;;;;;;;;;5072801;28;20048;-71
2022/05/30 12:13:27;;;;;;;5.38;4.53;;;;;;;;;;5072742;28;20089;-71
2022/05/30 12:16:04;;;;;;;5.50;4.35;;;;;;;;;;5072669;28;20540;-71
2022/05/30 12:24:21;;;;;;;8.73;5.55;;;;;;;;;;5072861;28;20048;-71
2022/05/30 12:26:48;;;;;;;5.10;4.60;;;;;;;;;;5072770;28;20401;-71
2022/05/30 12:29:33;;;;;;;7.40;5.13;;;;;;;;;;5072891;28;20074;-71
2022/05/30 12:32:16;;;;;;;7.60;5.32;;;;;;;;;;5072482;28;20041;-71
2022/05/30 12:35:05;;;;;;;7.63;5.10;;;;;;;;;;5072604;28;20085;-71
2022/05/30 12:37:45;;;;;;;9.10;6.13;;;;;;;;;;5072618;28;20102;-71
2022/05/30 12:40:33;;;;;;;7.97;4.80;;;;;;;;;;5072481;28;20512;-71
2022/05/30 12:43:04;;;;;;;6.28;4.68;;;;;;;;;;5059079;28;20064;-70
2022/05/30 12:45:40;;;;;;;6.95;5.45;;;;;;;;;;5054754;28;20134;-70
2022/05/30 12:48:17;;;;;;;5.82;4.70;;;;;;;;;;5072499;28;20044;-71
2022/05/30 12:50:51;;;;;;;6.45;5.20;;;;;;;;;;5068829;28;20370;-71
2022/05/30 12:53:20;;;;;;;9.48;7.18;;;;;;;;;;5072001;28;20131;-71
2022/05/30 12:55:52;;;;;;;8.07;5.60;;;;;;;;;;5071776;28;20119;-71
2022/05/30 12:58:20;;;;;;;6.72;5.43;;;;;;;;;;5071548;28;20426;-71
2022/05/30 13:00:53;;;;;;;6.43;5.28;;;;;;;;;;5054030;28;20039;-72
2022/05/30 13:03:20;;;;;;;5.78;5.22;;;;;;;;;;5071372;28;20045;-72
2022/05/30 13:05:59;;;;;;;7.03;5.40;;;;;;;;;;5071816;28;20573;-71
2022/05/30 13:08:46;;;;;;;6.40;5.15;;;;;;;;;;5057321;28;20036;-71
2022/05/30 13:11:34;;;;;;;6.43;5.15;;;;;;;;;;5071266;28;20068;-71
2022/05/30 13:14:09;;;;;;;7.57;5.22;;;;;;;;;;5061577;28;20045;-71
2022/05/30 13:16:42;;;;;;;8.18;5.90;;;;;;;;;;5073080;28;20045;-71
2022/05/30 13:19:12;;;;;;;5.78;5.18;;;;;;;;;;5075502;28;20038;-72
2022/05/30 13:21:42;;;;;;;6.13;5.28;;;;;;;;;;5075440;28;20048;-72
2022/05/30 13:24:29;;;;;;;6.72;4.90;;;;;;;;;;5067201;28;20041;-72
2022/05/30 13:26:57;;;;;;;7.10;4.50;;;;;;;;;;5072270;28;20431;-72
2022/05/30 13:29:35;;;;;;;7.13;6.22;;;;;;;;;;5074917;28;20135;-72
2022/05/30 13:32:22;;;;;;;6.85;5.97;;;;;;;;;;5074944;28;20041;-71
2022/05/30 13:34:52;;;;;;;6.35;4.80;;;;;;;;;;5075216;28;20093;-72
2022/05/30 13:37:23;;;;;;;6.28;4.32;;;;;;;;;;5074826;28;20029;-71
2022/05/30 13:39:51;;;;;;;6.57;4.47;;;;;;;;;;5075250;28;20044;-71
2022/05/30 13:42:19;;;;;;;6.63;4.30;;;;;;;;;;5073907;28;20040;-71
2022/05/30 13:44:48;;;;;;;6.07;4.82;;;;;;;;;;5074799;28;20103;-71
2022/05/30 13:47:16;;;;;;;7.70;4.53;;;;;;;;;;5074834;28;20044;-71
2022/05/30 13:49:45;;;;;;;8.60;4.65;;;;;;;;;;5074949;28;20509;-72
2022/05/30 13:52:14;;;;;;;5.28;4.45;;;;;;;;;;5074523;28;20040;-71
2022/05/30 13:54:44;;;;;;;5.28;4.00;;;;;;;;;;5074764;28;20041;-71
2022/05/30 13:57:12;;;;;;;5.63;4.50;;;;;;;;;;5074875;28;20044;-70
2022/05/30 13:59:46;;;;;;;5.40;4.57;;;;;;;;;;5060516;28;20047;-71
2022/05/30 14:02:41;;;;;;;7.82;4.57;;;;;;;;;;5060126;28;20436;-71
2022/05/30 14:05:11;;;;;;;6.10;5.50;;;;;;;;;;5074650;28;20649;-71
2022/05/30 14:07:46;;;;;;;6.55;4.72;;;;;;;;;;5074730;28;20072;-71
2022/05/30 14:10:16;;;;;;;7.88;4.68;;;;;;;;;;5074182;28;20059;-72
2022/05/30 14:13:04;;;;;;;7.45;4.38;;;;;;;;;;5074525;28;20112;-71
2022/05/30 14:15:33;;;;;;;5.80;4.68;;;;;;;;;;5056673;28;20036;-71
2022/05/30 14:18:19;;;;;;;5.57;4.00;;;;;;;;;;5074706;28;20043;-71
2022/05/30 14:20:49;;;;;;;10.60;8.55;;;;;;;;;;5074888;28;20486;-71
2022/05/30 14:23:17;;;;;;;10.68;7.78;;;;;;;;;;5074650;28;20041;-72
2022/05/30 14:25:46;;;;;;;4.90;4.10;;;;;;;;;;5074774;28;20047;-72
2022/05/30 14:28:23;;;;;;;5.70;4.05;;;;;;;;;;5025562;28;20135;-72
2022/05/30 14:30:53;;;;;;;6.38;4.63;;;;;;;;;;5074559;28;20044;-72
2022/05/30 14:33:20;;;;;;;6.70;5.57;;;;;;;;;;5073975;28;20052;-72
2022/05/30 14:35:48;;;;;;;5.70;3.90;;;;;;;;;;5073899;28;20040;-72
2022/05/30 14:38:31;;;;;;;6.93;4.60;;;;;;;;;;5074042;28;20103;-72
2022/05/30 14:41:02;;;;;;;48.58;38.13;;;;;;;;;;5074225;28;20055;-72
2022/05/30 14:43:50;;;;;;;48.45;42.83;;;;;;;;;;5073875;28;20056;-71
2022/05/30 14:46:37;;;;;;;6.78;4.95;;;;;;;;;;5073751;28;20070;-72
2022/05/30 14:49:14;;;;;;;6.13;4.70;;;;;;;;;;5074229;28;20535;-72
2022/05/30 14:51:53;;;;;;;16.75;14.05;;;;;;;;;;5074248;28;20044;-72
2022/05/30 14:54:39;;;;;;;12.90;10.93;;;;;;;;;;5074240;28;20079;-72
2022/05/30 14:57:19;;;;;;;15.10;9.90;;;;;;;;;;5056348;28;20036;-72
2022/05/30 14:59:48;;;;;;;6.97;5.15;;;;;;;;;;5074108;28;20078;-72
2022/05/30 15:05:10;;;;;;;17.05;11.48;;;;;;;;;;5027490;28;20068;-72
2022/05/30 15:07:41;;;;;;;22.17;17.15;;;;;;;;;;5056442;28;20082;-72
2022/05/30 15:10:10;;;;;;;13.75;10.40;;;;;;;;;;5073752;28;20045;-72
2022/05/30 15:12:38;;;;;;;16.98;11.65;;;;;;;;;;5073856;28;20064;-72
2022/05/30 15:15:06;;;;;;;9.98;8.13;;;;;;;;;;5073688;28;20036;-72
2022/05/30 15:17:33;;;;;;;10.48;6.93;;;;;;;;;;5073697;28;20041;-72
2022/05/30 15:20:03;;;;;;;9.93;5.97;;;;;;;;;;5073745;28;20482;-72
2022/05/30 15:22:31;;;;;;;7.00;4.53;;;;;;;;;;5074086;28;20132;-72
2022/05/30 15:25:04;;;;;;;11.80;7.55;;;;;;;;;;5073651;28;20036;-72
2022/05/30 15:27:32;;;;;;;11.75;8.73;;;;;;;;;;5073376;28;20032;-72
2022/05/30 15:29:59;;;;;;;9.70;6.70;;;;;;;;;;5073330;28;20036;-72
2022/05/30 15:32:28;;;;;;;16.88;9.50;;;;;;;;;;5073537;28;20042;-72
2022/05/30 15:34:55;;;;;;;16.67;11.80;;;;;;;;;;5073267;28;20512;-72
2022/05/30 15:37:25;;;;;;;18.98;12.57;;;;;;;;;;5073402;28;20090;-73
2022/05/30 15:39:53;;;;;;;14.80;8.88;;;;;;;;;;5055106;28;20051;-73
2022/05/30 15:42:23;;;;;;;25.25;19.90;;;;;;;;;;5073285;28;20033;-72
2022/05/30 15:44:53;;;;;;;39.80;33.28;;;;;;;;;;5073064;28;20110;-72